메인 페이지
METAR-TAF:

METAR-TAF

공항 :

인천국제공항

인천, 대한민국

위도: 37-28N, 경도: 126-27E, 고도: 7m

현재 날씨관측

예보는 31분 전, 08:30시(UTC)에 발표되었습니다.
서북서10kt
온도 18°C
습도 45%
기압 1017 hPa
시정 10km 이상
1500m 미만 상공 구름 및 적란운 없음

METAR: RKSI 210830Z 30010KT CAVOK 18/06 Q1017 NOSIG

시각: 18:01 (09:01 UTC)

예보

예보는 4 시간 1분 전, 05:00시(UTC)에 발표되었습니다.
예보 대상 시간: 21일 06시부터 22일 12시까지 (UTC)
북서10kt
시정 10km 이상
1500m 미만 상공 구름 및 적란운 없음
전환 중
21일 09시부터 21일 10시까지 (UTC)
7kt
전환 중
21일 15시부터 21일 16시까지 (UTC)
남남동5kt
시정: 6000m
고도 3000ft 상공 구름 보통
고도 15000ft 상공 구름 많음
전환 중
22일 05시부터 22일 06시까지 (UTC)
8kt
시정: 4200m
고도 1000ft 상공 구름 조금
고도 2500ft 상공 구름 많음
고도 8000ft 상공 흐림
약한비
전환 중
22일 11시부터 22일 12시까지 (UTC)
남남동10kt
시정: 2800m

TAF: RKSI 210500Z 2106/2212 31010KT CAVOK TN16/2121Z TX21/2206Z BECMG 2109/2110 01007KT BECMG 2115/2116 15005KT 6000 SCT030 BKN150 BECMG 2205/2206 28008KT 4200 -RA FEW010 BKN025 OVC080 BECMG 2211/2212 16010KT 2800

4,000개 이상의 공항 관측 자료 및 예보 (METAR 및 TAF 보고).

지도상에서 검색 가능한 기상관측소가 노란 점과 빨간 점으로 표시되어 있습니다.

기상관측소 명을 보려면 표시 위로 마우스를 이동하세요.

날씨 관측과 예보를 보려면 클릭하세요.

지도 변경 : 확대하려면 엑스 표시가 있는 녹색 버튼, 축소하려면 빼기 표시가 있는 녹색 버튼, 다음 페이지의 지도를 보려면 녹색 화살표를 클릭하세요.


METAR-TAF: